UKKK/IEV METAR and TAF weather

Enter ICAO airport designator
Station Type Date Time Source
UKKK METAR 2020/01/20 21:30 UTC NOAA

UKKK 202130Z 29007MPS 9999 OVC015 01/M02 Q1036 R26/290052 NOSIG


Station Type Date Time Source
UKKK Decoded METAR 2020/01/20 21:30 UTC NOAA

Kyiv, Ukraine (UKKK) 50-24N 030-34E 167M
Jan 20, 2020 - 04:30 PM EST / 2020.01.20 2130 UTC
Wind: from the WNW (290 degrees) at 16 MPH (14 KT):0
Visibility: greater than 7 mile(s):0
Sky conditions: overcast
Temperature: 33 F (1 C)
Windchill: 23 F (-5 C):1
Dew Point: 28 F (-2 C)
Relative Humidity: 80%
Pressure (altimeter): 30.59 in. Hg (1036 hPa)
ob: UKKK 202130Z 29007MPS 9999 OVC015 01/M02 Q1036 R26/290052 NOSIG
cycle: 21

Station Type Date Time Source
UKKK TAF 2020/01/20 18:09 UTC NOAA

TAF TAF UKKK 201701Z 2018/2118 29006G12MPS 6000 OVC010 TX02/2112Z TNM01/2105Z
TEMPO 2018/2107 2000 -SN BR BKN005
TEMPO 2108/2118 28009G14MPS

Example: see airport list